Time;durP1;ratioP1;P1;durP2;ratioP2;P2;SDS_P1;SDS_P2;PMS_P1;PMS_P2;Temp;Humidity;BMP_temperature;BMP_pressure;BME280_temperature;BME280_humidity;BME280_pressure;Samples;Min_cycle;Max_cycle;Signal;HPM_P1;HPM_P2
2021/07/22 00:01:05;;;;;;;23.50;22.37;;;;;;;;;;5051944;28;20454;-71
2021/07/22 00:03:33;;;;;;;23.50;22.30;;;;;;;;;;5052201;28;20479;-72
2021/07/22 00:06:01;;;;;;;24.10;22.60;;;;;;;;;;5052022;28;20546;-72
2021/07/22 00:08:30;;;;;;;23.70;22.30;;;;;;;;;;5047564;28;20460;-72
2021/07/22 00:10:57;;;;;;;23.97;22.73;;;;;;;;;;5033979;28;20453;-71
2021/07/22 00:13:24;;;;;;;23.40;22.20;;;;;;;;;;5052182;28;20451;-71
2021/07/22 00:15:51;;;;;;;23.13;22.03;;;;;;;;;;5052013;28;20977;-71
2021/07/22 00:18:18;;;;;;;23.67;22.20;;;;;;;;;;5051796;28;20483;-72
2021/07/22 00:20:45;;;;;;;24.47;22.30;;;;;;;;;;5051802;28;20451;-73
2021/07/22 00:23:13;;;;;;;23.27;22.07;;;;;;;;;;5051941;28;20862;-72
2021/07/22 00:25:42;;;;;;;23.70;22.23;;;;;;;;;;5051790;28;20969;-73
2021/07/22 00:28:09;;;;;;;22.87;21.60;;;;;;;;;;5051792;28;20474;-72
2021/07/22 00:30:36;;;;;;;23.70;22.20;;;;;;;;;;5051857;28;20463;-72
2021/07/22 00:33:03;;;;;;;22.83;21.43;;;;;;;;;;5051795;28;20470;-72
2021/07/22 00:35:30;;;;;;;23.07;21.60;;;;;;;;;;5051237;28;20452;-71
2021/07/22 00:37:58;;;;;;;23.63;22.40;;;;;;;;;;5051572;28;20455;-72
2021/07/22 00:40:25;;;;;;;23.33;21.93;;;;;;;;;;5051963;28;20450;-71
2021/07/22 00:42:58;;;;;;;22.73;21.53;;;;;;;;;;5051589;28;20488;-72
2021/07/22 00:45:25;;;;;;;22.60;21.50;;;;;;;;;;5051175;28;20451;-72
2021/07/22 00:47:52;;;;;;;21.83;20.63;;;;;;;;;;5051771;28;20451;-73
2021/07/22 00:50:20;;;;;;;23.10;21.97;;;;;;;;;;5050828;28;20462;-72
2021/07/22 00:52:47;;;;;;;22.20;21.00;;;;;;;;;;5051764;28;20483;-72
2021/07/22 00:55:15;;;;;;;23.60;22.30;;;;;;;;;;5053896;28;20836;-72
2021/07/22 00:57:42;;;;;;;22.60;21.50;;;;;;;;;;5054696;28;20455;-72
2021/07/22 01:00:11;;;;;;;23.40;22.03;;;;;;;;;;5055659;28;20443;-73
2021/07/22 01:02:39;;;;;;;23.13;21.90;;;;;;;;;;5055233;28;20478;-72
2021/07/22 01:05:07;;;;;;;22.20;21.07;;;;;;;;;;5055815;28;20542;-72
2021/07/22 01:07:34;;;;;;;22.07;20.87;;;;;;;;;;5055135;28;20448;-71
2021/07/22 01:10:01;;;;;;;23.13;21.83;;;;;;;;;;5055557;28;20451;-72
2021/07/22 01:12:28;;;;;;;21.40;20.40;;;;;;;;;;5054818;28;20805;-73
2021/07/22 01:14:55;;;;;;;22.90;21.70;;;;;;;;;;5055201;28;20443;-72
2021/07/22 01:17:28;;;;;;;22.10;21.00;;;;;;;;;;5056127;28;20448;-72
2021/07/22 01:19:55;;;;;;;23.07;21.87;;;;;;;;;;5055703;28;20456;-72
2021/07/22 01:22:23;;;;;;;23.77;22.20;;;;;;;;;;5055474;28;21006;-72
2021/07/22 01:24:50;;;;;;;23.40;22.10;;;;;;;;;;5055974;28;20483;-72
2021/07/22 01:27:18;;;;;;;22.10;21.00;;;;;;;;;;5055794;28;21158;-71
2021/07/22 01:29:45;;;;;;;22.60;21.30;;;;;;;;;;5055679;28;20452;-72
2021/07/22 01:32:12;;;;;;;22.20;21.00;;;;;;;;;;5055403;28;21019;-72
2021/07/22 01:34:39;;;;;;;21.83;20.63;;;;;;;;;;5056274;28;20451;-72
2021/07/22 01:37:06;;;;;;;22.20;21.00;;;;;;;;;;5061912;28;20456;-72
2021/07/22 01:39:34;;;;;;;22.77;21.40;;;;;;;;;;5057253;28;20479;-72
2021/07/22 01:42:01;;;;;;;23.23;21.50;;;;;;;;;;5055108;28;20478;-72
2021/07/22 01:44:29;;;;;;;22.13;21.03;;;;;;;;;;5054689;28;20483;-72
2021/07/22 01:46:56;;;;;;;22.83;21.43;;;;;;;;;;5055133;28;20448;-72
2021/07/22 01:49:24;;;;;;;22.53;21.33;;;;;;;;;;5055023;28;20454;-72
2021/07/22 01:51:51;;;;;;;21.80;20.60;;;;;;;;;;5054646;28;20479;-72
2021/07/22 01:54:18;;;;;;;21.50;20.20;;;;;;;;;;5053070;28;20439;-72
2021/07/22 01:56:46;;;;;;;22.13;20.97;;;;;;;;;;5048079;28;20994;-72
2021/07/22 01:59:14;;;;;;;21.57;20.43;;;;;;;;;;5046110;28;20440;-72
2021/07/22 02:01:41;;;;;;;22.10;21.00;;;;;;;;;;5048531;28;20487;-73
2021/07/22 02:04:08;;;;;;;22.23;21.00;;;;;;;;;;5053928;28;20479;-72
2021/07/22 02:06:35;;;;;;;21.47;20.23;;;;;;;;;;5052867;28;20455;-72
2021/07/22 02:09:02;;;;;;;21.23;20.13;;;;;;;;;;5054814;28;20450;-72
2021/07/22 02:11:29;;;;;;;22.10;20.90;;;;;;;;;;5053549;28;20464;-72
2021/07/22 02:13:58;;;;;;;22.00;20.80;;;;;;;;;;5054082;28;20470;-72
2021/07/22 02:16:25;;;;;;;22.20;20.80;;;;;;;;;;5054108;28;20452;-72
2021/07/22 02:18:52;;;;;;;21.50;20.30;;;;;;;;;;5054547;28;20830;-72
2021/07/22 02:21:19;;;;;;;21.30;20.10;;;;;;;;;;5053711;28;20479;-72
2021/07/22 02:23:46;;;;;;;21.80;20.60;;;;;;;;;;5053861;28;20490;-72
2021/07/22 02:26:13;;;;;;;22.03;20.77;;;;;;;;;;5054416;28;20447;-72
2021/07/22 02:28:40;;;;;;;21.73;20.57;;;;;;;;;;5053599;28;20828;-72
2021/07/22 02:31:09;;;;;;;21.83;20.73;;;;;;;;;;5053445;28;20454;-72
2021/07/22 02:33:36;;;;;;;22.63;21.43;;;;;;;;;;5053742;28;20543;-71
2021/07/22 02:36:03;;;;;;;22.03;20.63;;;;;;;;;;5053882;28;20439;-72
2021/07/22 02:38:30;;;;;;;22.23;21.03;;;;;;;;;;5053734;28;20483;-72
2021/07/22 02:40:57;;;;;;;22.30;21.10;;;;;;;;;;5053938;28;20459;-72
2021/07/22 02:43:24;;;;;;;22.90;21.60;;;;;;;;;;5053638;28;20484;-72
2021/07/22 02:45:51;;;;;;;22.47;21.27;;;;;;;;;;5053447;28;20460;-72
2021/07/22 02:48:20;;;;;;;22.53;21.23;;;;;;;;;;5053461;28;20984;-72
2021/07/22 02:50:47;;;;;;;22.07;20.83;;;;;;;;;;5053440;28;20451;-73
2021/07/22 02:53:14;;;;;;;22.80;21.60;;;;;;;;;;5051706;28;20486;-72
2021/07/22 02:55:41;;;;;;;22.60;21.40;;;;;;;;;;5053424;28;20451;-73
2021/07/22 02:58:08;;;;;;;21.93;20.83;;;;;;;;;;5052571;28;20963;-72
2021/07/22 03:00:35;;;;;;;22.20;21.00;;;;;;;;;;5053473;28;20451;-73
2021/07/22 03:03:02;;;;;;;22.10;20.93;;;;;;;;;;5053440;28;21013;-72
2021/07/22 03:05:31;;;;;;;22.40;21.00;;;;;;;;;;5053633;28;20484;-73
2021/07/22 03:08:01;;;;;;;22.20;21.03;;;;;;;;;;5055920;28;20452;-72
2021/07/22 03:10:28;;;;;;;23.13;21.90;;;;;;;;;;5060181;28;20971;-73
2021/07/22 03:12:55;;;;;;;23.13;21.77;;;;;;;;;;5053076;28;20472;-73
2021/07/22 03:15:23;;;;;;;22.90;21.43;;;;;;;;;;5053147;28;20823;-73
2021/07/22 03:17:50;;;;;;;22.30;21.10;;;;;;;;;;5052474;28;20975;-73
2021/07/22 03:20:17;;;;;;;22.83;21.63;;;;;;;;;;5053627;28;20542;-73
2021/07/22 03:22:45;;;;;;;22.07;20.87;;;;;;;;;;5053157;28;20471;-73
2021/07/22 03:25:13;;;;;;;22.80;21.33;;;;;;;;;;5052998;28;20483;-73
2021/07/22 03:27:40;;;;;;;22.57;21.47;;;;;;;;;;5053642;28;20831;-72
2021/07/22 03:30:08;;;;;;;21.67;20.47;;;;;;;;;;5053005;28;20462;-73
2021/07/22 03:32:36;;;;;;;21.87;20.63;;;;;;;;;;5052501;28;20502;-73
2021/07/22 03:35:03;;;;;;;23.07;21.57;;;;;;;;;;5052675;28;20452;-73
2021/07/22 03:37:31;;;;;;;21.70;20.60;;;;;;;;;;5053790;28;20454;-73
2021/07/22 03:39:59;;;;;;;22.30;21.00;;;;;;;;;;5052334;28;20509;-73
2021/07/22 03:42:29;;;;;;;21.90;20.80;;;;;;;;;;5052961;28;20478;-74
2021/07/22 03:44:56;;;;;;;23.00;21.60;;;;;;;;;;5052751;28;20857;-74
2021/07/22 03:47:23;;;;;;;21.83;20.73;;;;;;;;;;5052342;28;20538;-74
2021/07/22 03:49:51;;;;;;;23.20;21.80;;;;;;;;;;5053406;28;20444;-73
2021/07/22 03:52:18;;;;;;;21.83;20.63;;;;;;;;;;5052088;28;20474;-72
2021/07/22 03:54:45;;;;;;;22.13;20.80;;;;;;;;;;5053209;28;20446;-72
2021/07/22 03:57:13;;;;;;;22.30;21.10;;;;;;;;;;5052806;28;20534;-73
2021/07/22 03:59:40;;;;;;;22.83;21.27;;;;;;;;;;5052867;28;20452;-72
2021/07/22 04:02:07;;;;;;;22.47;21.20;;;;;;;;;;5052378;28;20982;-72
2021/07/22 04:04:35;;;;;;;22.40;21.10;;;;;;;;;;5053437;28;20928;-73
2021/07/22 04:07:02;;;;;;;22.37;20.90;;;;;;;;;;5052601;28;20531;-73
2021/07/22 04:09:29;;;;;;;21.83;20.47;;;;;;;;;;5052659;28;20459;-72
2021/07/22 04:11:56;;;;;;;22.60;21.40;;;;;;;;;;5052287;28;20478;-73
2021/07/22 04:14:24;;;;;;;22.77;21.37;;;;;;;;;;5052856;28;20446;-72
2021/07/22 04:16:51;;;;;;;22.70;21.40;;;;;;;;;;5052344;28;20459;-72
2021/07/22 04:19:19;;;;;;;23.17;21.83;;;;;;;;;;5052904;28;20458;-73
2021/07/22 04:21:46;;;;;;;23.17;21.87;;;;;;;;;;5052215;28;20483;-72
2021/07/22 04:24:13;;;;;;;21.90;20.70;;;;;;;;;;5051948;28;20929;-72
2021/07/22 04:26:40;;;;;;;22.50;21.20;;;;;;;;;;5052300;28;20444;-72
2021/07/22 04:29:07;;;;;;;22.47;21.27;;;;;;;;;;5052821;28;20955;-72
2021/07/22 04:31:36;;;;;;;22.47;21.27;;;;;;;;;;5056207;28;20478;-73
2021/07/22 04:34:03;;;;;;;22.67;21.30;;;;;;;;;;5055784;28;20444;-72
2021/07/22 04:36:32;;;;;;;22.67;21.37;;;;;;;;;;5056257;28;20451;-72
2021/07/22 04:38:59;;;;;;;22.17;20.87;;;;;;;;;;5055472;28;20452;-72
2021/07/22 04:41:26;;;;;;;22.30;21.10;;;;;;;;;;5055200;28;20471;-72
2021/07/22 04:43:53;;;;;;;22.30;21.10;;;;;;;;;;5055816;28;20473;-72
2021/07/22 04:46:20;;;;;;;22.60;21.20;;;;;;;;;;5056071;28;20440;-72
2021/07/22 04:48:48;;;;;;;22.43;21.23;;;;;;;;;;5040579;28;20825;-72
2021/07/22 04:51:16;;;;;;;22.40;21.10;;;;;;;;;;5039308;28;20478;-72
2021/07/22 04:53:43;;;;;;;22.30;21.10;;;;;;;;;;5054826;28;20794;-72
2021/07/22 04:56:10;;;;;;;22.00;20.80;;;;;;;;;;5054970;28;20454;-72
2021/07/22 04:58:37;;;;;;;21.10;20.10;;;;;;;;;;5055339;28;20974;-72
2021/07/22 05:01:05;;;;;;;21.57;20.47;;;;;;;;;;5055148;28;20443;-72
2021/07/22 05:03:32;;;;;;;22.70;21.50;;;;;;;;;;5055195;28;20447;-72
2021/07/22 05:06:00;;;;;;;21.43;20.23;;;;;;;;;;5054999;28;21002;-73
2021/07/22 05:08:27;;;;;;;22.57;21.33;;;;;;;;;;5035137;28;20452;-73
2021/07/22 05:10:58;;;;;;;21.27;20.10;;;;;;;;;;5051048;28;20474;-72
2021/07/22 05:13:25;;;;;;;21.87;20.77;;;;;;;;;;5047022;28;20891;-72
2021/07/22 05:15:52;;;;;;;21.63;20.53;;;;;;;;;;5054991;28;20443;-74
2021/07/22 05:18:19;;;;;;;22.73;20.80;;;;;;;;;;5054363;28;20787;-72
2021/07/22 05:20:47;;;;;;;21.50;19.83;;;;;;;;;;5054953;28;20448;-72
2021/07/22 05:23:15;;;;;;;21.73;20.20;;;;;;;;;;5051105;28;20483;-73
2021/07/22 05:25:42;;;;;;;21.53;20.13;;;;;;;;;;5035130;28;20491;-73
2021/07/22 05:28:09;;;;;;;21.53;20.43;;;;;;;;;;5052716;28;20456;-72
2021/07/22 05:30:37;;;;;;;22.23;20.50;;;;;;;;;;5054386;28;20458;-71
2021/07/22 05:33:05;;;;;;;21.30;20.10;;;;;;;;;;5054756;28;20478;-71
2021/07/22 05:35:32;;;;;;;21.70;20.60;;;;;;;;;;5054444;28;20440;-71
2021/07/22 05:37:59;;;;;;;21.77;20.57;;;;;;;;;;5054702;28;20717;-71
2021/07/22 05:40:28;;;;;;;21.37;19.90;;;;;;;;;;5034375;28;20444;-73
2021/07/22 05:42:55;;;;;;;20.97;19.73;;;;;;;;;;5054384;28;20478;-71
2021/07/22 05:45:22;;;;;;;21.53;20.20;;;;;;;;;;5054178;28;20487;-72
2021/07/22 05:47:49;;;;;;;21.00;19.60;;;;;;;;;;5053764;28;20456;-71
2021/07/22 05:50:17;;;;;;;20.50;19.37;;;;;;;;;;5053865;28;20973;-72
2021/07/22 05:52:44;;;;;;;24.10;21.67;;;;;;;;;;5053931;28;20471;-72
2021/07/22 05:55:11;;;;;;;22.30;20.27;;;;;;;;;;5054669;28;20443;-69
2021/07/22 05:57:40;;;;;;;22.23;20.60;;;;;;;;;;5050875;28;20872;-69
2021/07/22 06:00:09;;;;;;;22.70;21.10;;;;;;;;;;5054229;28;20456;-70
2021/07/22 06:02:36;;;;;;;23.30;21.67;;;;;;;;;;5053774;28;20467;-70
2021/07/22 06:05:05;;;;;;;22.73;21.10;;;;;;;;;;5054355;28;20489;-70
2021/07/22 06:07:32;;;;;;;22.07;20.57;;;;;;;;;;5054484;28;20874;-70
2021/07/22 06:09:59;;;;;;;21.77;20.53;;;;;;;;;;5055024;28;20448;-70
2021/07/22 06:12:29;;;;;;;25.63;24.17;;;;;;;;;;5053870;28;21013;-70
2021/07/22 06:14:58;;;;;;;21.63;20.00;;;;;;;;;;5047829;28;20464;-70
2021/07/22 06:17:25;;;;;;;22.93;20.90;;;;;;;;;;5051703;28;20466;-68
2021/07/22 06:19:52;;;;;;;21.57;19.87;;;;;;;;;;5052906;28;21013;-68
2021/07/22 06:22:19;;;;;;;21.00;19.60;;;;;;;;;;5053795;28;20480;-69
2021/07/22 06:24:47;;;;;;;21.10;19.80;;;;;;;;;;5051643;28;20494;-68
2021/07/22 06:27:14;;;;;;;21.30;20.20;;;;;;;;;;5053678;28;20539;-68
2021/07/22 06:29:41;;;;;;;21.03;19.83;;;;;;;;;;5053001;28;20456;-68
2021/07/22 06:32:10;;;;;;;20.13;19.07;;;;;;;;;;5052900;28;20862;-68
2021/07/22 06:34:37;;;;;;;20.87;19.57;;;;;;;;;;5048680;28;20467;-70
2021/07/22 06:37:04;;;;;;;20.43;19.17;;;;;;;;;;5034108;28;20452;-69
2021/07/22 06:39:33;;;;;;;20.50;19.40;;;;;;;;;;5050238;28;20487;-69
2021/07/22 06:42:00;;;;;;;20.37;19.10;;;;;;;;;;5051325;28;20479;-70
2021/07/22 06:44:28;;;;;;;20.27;19.27;;;;;;;;;;5051330;28;20969;-70
2021/07/22 06:46:56;;;;;;;19.17;18.03;;;;;;;;;;5052788;28;20844;-70
2021/07/22 06:49:24;;;;;;;20.00;19.00;;;;;;;;;;5051318;28;20467;-69
2021/07/22 06:51:51;;;;;;;20.93;19.83;;;;;;;;;;5052844;28;20482;-68
2021/07/22 06:54:18;;;;;;;19.87;18.77;;;;;;;;;;5050424;28;20468;-68
2021/07/22 06:56:46;;;;;;;19.50;18.30;;;;;;;;;;5050936;28;20821;-69
2021/07/22 06:59:13;;;;;;;20.33;19.33;;;;;;;;;;5052224;28;20468;-68
2021/07/22 07:01:40;;;;;;;20.87;19.30;;;;;;;;;;5052202;28;20474;-68
2021/07/22 07:04:07;;;;;;;19.20;18.20;;;;;;;;;;5052428;28;20478;-70
2021/07/22 07:06:36;;;;;;;19.93;18.93;;;;;;;;;;5052708;28;20490;-69
2021/07/22 07:09:05;;;;;;;19.27;18.27;;;;;;;;;;5051194;28;20464;-69
2021/07/22 07:11:32;;;;;;;19.43;18.50;;;;;;;;;;5050202;28;20494;-69
2021/07/22 07:13:59;;;;;;;20.47;19.43;;;;;;;;;;5052085;28;20471;-68
2021/07/22 07:16:26;;;;;;;20.83;19.63;;;;;;;;;;5051925;28;20490;-68
2021/07/22 07:18:53;;;;;;;19.97;18.87;;;;;;;;;;5052992;28;20454;-69
2021/07/22 07:21:20;;;;;;;20.53;19.53;;;;;;;;;;5051714;28;20499;-69
2021/07/22 07:23:49;;;;;;;18.73;17.90;;;;;;;;;;5051823;28;20811;-69
2021/07/22 07:26:16;;;;;;;20.37;19.37;;;;;;;;;;5047610;28;20498;-69
2021/07/22 07:28:44;;;;;;;19.03;18.13;;;;;;;;;;5050447;28;20474;-68
2021/07/22 07:31:11;;;;;;;19.40;18.40;;;;;;;;;;5049612;28;20833;-68
2021/07/22 07:33:38;;;;;;;19.73;18.63;;;;;;;;;;5050704;28;21692;-68
2021/07/22 07:36:05;;;;;;;19.27;18.17;;;;;;;;;;5050460;28;20559;-69
2021/07/22 07:38:32;;;;;;;19.93;18.93;;;;;;;;;;5051388;28;20474;-69
2021/07/22 07:41:01;;;;;;;19.17;18.17;;;;;;;;;;5050143;28;20962;-69
2021/07/22 07:43:28;;;;;;;19.63;18.63;;;;;;;;;;5051981;28;20455;-68
2021/07/22 07:45:55;;;;;;;19.80;18.80;;;;;;;;;;5051501;28;20856;-69
2021/07/22 07:48:22;;;;;;;20.83;19.73;;;;;;;;;;5051175;28;20474;-68
2021/07/22 07:50:49;;;;;;;19.50;18.60;;;;;;;;;;5051673;28;20462;-68
2021/07/22 07:53:17;;;;;;;20.00;19.10;;;;;;;;;;5051627;28;20562;-67
2021/07/22 07:55:45;;;;;;;19.57;18.50;;;;;;;;;;5051667;28;20479;-68
2021/07/22 07:58:13;;;;;;;19.70;18.60;;;;;;;;;;5050677;28;20472;-69
2021/07/22 08:00:41;;;;;;;18.70;17.80;;;;;;;;;;5049133;28;20495;-68
2021/07/22 08:03:08;;;;;;;20.00;19.10;;;;;;;;;;5051651;28;20858;-69
2021/07/22 08:05:40;;;;;;;19.40;18.30;;;;;;;;;;5055530;28;20486;-69
2021/07/22 08:08:07;;;;;;;19.73;18.73;;;;;;;;;;5055818;28;20463;-68
2021/07/22 08:10:34;;;;;;;20.40;19.43;;;;;;;;;;5056578;28;20452;-68
2021/07/22 08:13:06;;;;;;;20.33;19.33;;;;;;;;;;5054241;28;20490;-69
2021/07/22 08:15:35;;;;;;;20.60;19.40;;;;;;;;;;5055178;28;20467;-73
2021/07/22 08:18:02;;;;;;;20.20;19.10;;;;;;;;;;5055130;28;20561;-68
2021/07/22 08:20:29;;;;;;;19.27;18.27;;;;;;;;;;5055814;28;21126;-68
2021/07/22 08:22:56;;;;;;;21.13;19.70;;;;;;;;;;5055529;28;20489;-70
2021/07/22 08:25:23;;;;;;;20.30;19.00;;;;;;;;;;5053358;28;21039;-70
2021/07/22 08:27:51;;;;;;;20.23;18.90;;;;;;;;;;5052930;28;20478;-70
2021/07/22 08:30:18;;;;;;;22.77;21.37;;;;;;;;;;5055051;28;20521;-71
2021/07/22 08:32:47;;;;;;;23.13;21.80;;;;;;;;;;5054326;28;20487;-70
2021/07/22 08:35:14;;;;;;;23.20;21.67;;;;;;;;;;5053341;28;20467;-71
2021/07/22 08:37:43;;;;;;;22.60;21.37;;;;;;;;;;5055817;28;20870;-72
2021/07/22 08:40:11;;;;;;;22.87;21.60;;;;;;;;;;5054181;28;21022;-71
2021/07/22 08:42:40;;;;;;;23.00;21.60;;;;;;;;;;5055302;28;20467;-72
2021/07/22 08:45:08;;;;;;;22.47;21.07;;;;;;;;;;5045540;28;20474;-72
2021/07/22 08:47:37;;;;;;;22.80;21.60;;;;;;;;;;5052618;28;20459;-72
2021/07/22 08:50:05;;;;;;;22.00;20.90;;;;;;;;;;5054667;28;20459;-72
2021/07/22 08:52:33;;;;;;;21.53;20.43;;;;;;;;;;5053369;28;20483;-71
2021/07/22 08:55:00;;;;;;;22.00;20.90;;;;;;;;;;5055377;28;20444;-72
2021/07/22 08:57:31;;;;;;;21.67;20.57;;;;;;;;;;5044496;28;20467;-72
2021/07/22 08:59:59;;;;;;;22.00;20.80;;;;;;;;;;5044687;28;20463;-72
2021/07/22 09:02:29;;;;;;;21.60;20.50;;;;;;;;;;5052946;28;20838;-73
2021/07/22 09:04:57;;;;;;;22.10;20.90;;;;;;;;;;5053893;28;20478;-72
2021/07/22 09:07:25;;;;;;;21.90;20.70;;;;;;;;;;5053987;28;20483;-73
2021/07/22 09:10:18;;;;;;;22.10;20.80;;;;;;;;;;5054680;28;20466;-72
2021/07/22 09:12:46;;;;;;;22.90;21.73;;;;;;;;;;5048042;28;20998;-72
2021/07/22 09:15:14;;;;;;;22.80;21.60;;;;;;;;;;5054205;28;20444;-72
2021/07/22 09:17:41;;;;;;;22.40;21.30;;;;;;;;;;5050523;28;20478;-72
2021/07/22 09:20:12;;;;;;;22.43;21.23;;;;;;;;;;5044972;28;20475;-72
2021/07/22 09:22:42;;;;;;;22.20;20.93;;;;;;;;;;5049065;28;20495;-72
2021/07/22 09:25:10;;;;;;;21.77;20.67;;;;;;;;;;5052933;28;20477;-72
2021/07/22 09:27:40;;;;;;;21.90;20.80;;;;;;;;;;5054460;28;20448;-72
2021/07/22 09:30:08;;;;;;;21.87;20.60;;;;;;;;;;5053968;28;20951;-72
2021/07/22 09:32:37;;;;;;;21.37;20.37;;;;;;;;;;5054123;28;20471;-72
2021/07/22 09:35:11;;;;;;;22.30;21.20;;;;;;;;;;5054388;28;20440;-72
2021/07/22 09:37:41;;;;;;;21.93;20.73;;;;;;;;;;5053480;28;20977;-72
2021/07/22 09:40:09;;;;;;;22.00;20.80;;;;;;;;;;5054169;28;20458;-72
2021/07/22 09:42:43;;;;;;;21.97;20.83;;;;;;;;;;5052541;28;20858;-70
2021/07/22 09:45:18;;;;;;;21.57;20.47;;;;;;;;;;5052357;28;20468;-72
2021/07/22 09:47:45;;;;;;;22.10;21.10;;;;;;;;;;5034038;28;20448;-71
2021/07/22 09:50:14;;;;;;;21.60;20.60;;;;;;;;;;5041921;28;20463;-72
2021/07/22 09:52:43;;;;;;;22.03;20.93;;;;;;;;;;5053400;28;21018;-73
2021/07/22 09:55:29;;;;;;;22.20;21.10;;;;;;;;;;5052248;28;20470;-71
2021/07/22 09:57:57;;;;;;;22.63;21.53;;;;;;;;;;5052590;28;20444;-72
2021/07/22 10:00:25;;;;;;;21.60;20.60;;;;;;;;;;5054076;28;20457;-72
2021/07/22 10:02:53;;;;;;;20.20;19.20;;;;;;;;;;5052840;28;21004;-72
2021/07/22 10:05:21;;;;;;;21.23;20.03;;;;;;;;;;5038379;28;20464;-72
2021/07/22 10:07:50;;;;;;;21.20;20.20;;;;;;;;;;5053365;28;20467;-72
2021/07/22 10:10:17;;;;;;;21.17;20.07;;;;;;;;;;5054505;28;20452;-73
2021/07/22 10:12:50;;;;;;;21.10;19.90;;;;;;;;;;5053881;28;20502;-72
2021/07/22 10:15:17;;;;;;;21.23;20.23;;;;;;;;;;5055114;28;20521;-72
2021/07/22 10:17:45;;;;;;;22.50;21.30;;;;;;;;;;5053344;28;20444;-73
2021/07/22 10:20:13;;;;;;;20.57;19.63;;;;;;;;;;5050411;28;20836;-73
2021/07/22 10:22:43;;;;;;;19.60;18.70;;;;;;;;;;5052162;28;20495;-72
2021/07/22 10:25:12;;;;;;;20.77;19.77;;;;;;;;;;5052426;28;20954;-72
2021/07/22 10:27:42;;;;;;;21.70;20.50;;;;;;;;;;5051621;28;20479;-71
2021/07/22 10:30:09;;;;;;;19.07;18.17;;;;;;;;;;5051180;28;20478;-72
2021/07/22 10:32:37;;;;;;;19.37;18.37;;;;;;;;;;5053438;28;20861;-72
2021/07/22 10:35:05;;;;;;;19.40;18.30;;;;;;;;;;5053854;28;20475;-71
2021/07/22 10:37:32;;;;;;;18.63;17.73;;;;;;;;;;5054671;28;20977;-72
2021/07/22 10:40:00;;;;;;;18.70;17.70;;;;;;;;;;5053483;28;20464;-72
2021/07/22 10:42:45;;;;;;;21.63;20.53;;;;;;;;;;5051679;28;20479;-72
2021/07/22 10:45:33;;;;;;;21.60;20.50;;;;;;;;;;5052738;28;20451;-72
2021/07/22 10:48:04;;;;;;;20.77;19.77;;;;;;;;;;5051001;28;20487;-73
2021/07/22 10:50:50;;;;;;;20.20;19.17;;;;;;;;;;5052481;28;20471;-72
2021/07/22 10:53:17;;;;;;;21.50;20.40;;;;;;;;;;5052572;28;20478;-72
2021/07/22 10:55:50;;;;;;;21.13;20.13;;;;;;;;;;5049534;28;20464;-72
2021/07/22 10:58:33;;;;;;;20.23;19.33;;;;;;;;;;5053022;28;20473;-72
2021/07/22 11:01:02;;;;;;;19.80;18.87;;;;;;;;;;5051171;28;20963;-73
2021/07/22 11:03:44;;;;;;;19.80;18.80;;;;;;;;;;5052920;28;20444;-72
2021/07/22 11:06:11;;;;;;;20.27;19.27;;;;;;;;;;5046919;28;21004;-73
2021/07/22 11:08:39;;;;;;;20.47;19.50;;;;;;;;;;5049387;28;20444;-72
2021/07/22 11:11:08;;;;;;;21.67;20.60;;;;;;;;;;5051311;28;20478;-72
2021/07/22 11:13:45;;;;;;;19.80;18.90;;;;;;;;;;5052748;28;20448;-72
2021/07/22 11:16:22;;;;;;;19.80;18.90;;;;;;;;;;5043150;28;20483;-71
2021/07/22 11:18:50;;;;;;;19.63;18.63;;;;;;;;;;5052634;28;20455;-71
2021/07/22 11:21:18;;;;;;;19.40;18.40;;;;;;;;;;5052246;28;20495;-72
2021/07/22 11:23:53;;;;;;;20.30;19.20;;;;;;;;;;5072500;22;20499;-62
2021/07/22 11:26:22;;;;;;;20.07;19.07;;;;;;;;;;5064659;28;20485;-62
2021/07/22 11:28:49;;;;;;;20.13;18.80;;;;;;;;;;5070156;28;20447;-62
2021/07/22 11:31:18;;;;;;;19.77;18.67;;;;;;;;;;5051803;28;20432;-62
2021/07/22 11:33:45;;;;;;;19.20;18.23;;;;;;;;;;5066020;28;20487;-62
2021/07/22 11:36:13;;;;;;;18.47;17.57;;;;;;;;;;5064501;28;20937;-62
2021/07/22 11:38:41;;;;;;;19.10;18.20;;;;;;;;;;5070848;28;20849;-62
2021/07/22 11:41:12;;;;;;;20.93;19.63;;;;;;;;;;5071346;28;20453;-63
2021/07/22 11:43:41;;;;;;;21.80;20.60;;;;;;;;;;5067327;28;20490;-66
2021/07/22 11:46:09;;;;;;;21.47;20.30;;;;;;;;;;5058333;28;20474;-66
2021/07/22 11:48:38;;;;;;;21.40;20.30;;;;;;;;;;5060998;28;20463;-64
2021/07/22 11:51:06;;;;;;;21.77;20.37;;;;;;;;;;5063902;28;20463;-65
2021/07/22 11:53:34;;;;;;;21.57;20.30;;;;;;;;;;5051648;28;20464;-65
2021/07/22 11:56:11;;;;;;;22.57;21.10;;;;;;;;;;5053402;28;20962;-65
2021/07/22 11:58:39;;;;;;;21.10;20.00;;;;;;;;;;5051814;28;20450;-66
2021/07/22 12:01:06;;;;;;;20.50;19.40;;;;;;;;;;5070247;28;20491;-65
2021/07/22 12:03:34;;;;;;;23.80;22.50;;;;;;;;;;5070193;28;20472;-65
2021/07/22 12:06:02;;;;;;;22.80;21.70;;;;;;;;;;5071642;28;20443;-65
2021/07/22 12:08:29;;;;;;;20.17;19.10;;;;;;;;;;5055121;28;20448;-66
2021/07/22 12:11:00;;;;;;;20.60;19.40;;;;;;;;;;5071258;28;20446;-64
2021/07/22 12:13:27;;;;;;;19.43;18.43;;;;;;;;;;5070384;28;20562;-65
2021/07/22 12:15:55;;;;;;;18.60;17.70;;;;;;;;;;5069460;28;20545;-65
2021/07/22 12:18:22;;;;;;;19.77;18.77;;;;;;;;;;5070909;28;20447;-65
2021/07/22 12:20:50;;;;;;;19.50;18.50;;;;;;;;;;5070007;28;20512;-65
2021/07/22 12:23:30;;;;;;;19.80;18.70;;;;;;;;;;5070883;28;20486;-65
2021/07/22 12:26:01;;;;;;;19.67;18.77;;;;;;;;;;5063727;28;20458;-66
2021/07/22 12:28:28;;;;;;;21.47;20.37;;;;;;;;;;5067837;28;20510;-64
2021/07/22 12:30:55;;;;;;;21.43;20.30;;;;;;;;;;5070994;28;20461;-65
2021/07/22 12:33:24;;;;;;;21.10;20.10;;;;;;;;;;5069331;28;20486;-65
2021/07/22 12:35:51;;;;;;;20.90;19.80;;;;;;;;;;5070983;28;20446;-64
2021/07/22 12:38:25;;;;;;;21.00;20.00;;;;;;;;;;5071256;28;20439;-64
2021/07/22 12:41:15;;;;;;;21.20;20.20;;;;;;;;;;5069868;28;20446;-65
2021/07/22 12:43:46;;;;;;;21.17;20.17;;;;;;;;;;5056580;28;20527;-65
2021/07/22 12:46:17;;;;;;;21.03;19.93;;;;;;;;;;5068981;28;20465;-64
2021/07/22 12:48:45;;;;;;;20.27;19.37;;;;;;;;;;5070901;28;20449;-65
2021/07/22 12:51:13;;;;;;;21.10;20.10;;;;;;;;;;5072796;28;20524;-65
2021/07/22 12:53:41;;;;;;;17.97;17.07;;;;;;;;;;5074046;28;20997;-70
2021/07/22 12:56:10;;;;;;;20.60;19.50;;;;;;;;;;5055934;28;20954;-67
2021/07/22 12:58:42;;;;;;;20.17;19.07;;;;;;;;;;5054810;28;20443;-68
2021/07/22 13:01:11;;;;;;;20.00;19.00;;;;;;;;;;5074118;28;20449;-67
2021/07/22 13:03:39;;;;;;;19.50;18.60;;;;;;;;;;5073606;28;20505;-63
2021/07/22 13:06:06;;;;;;;18.80;17.80;;;;;;;;;;5057132;28;20469;-67
2021/07/22 13:08:33;;;;;;;20.70;19.60;;;;;;;;;;5073409;28;20482;-68
2021/07/22 13:11:00;;;;;;;20.47;19.47;;;;;;;;;;5074244;28;20474;-66
2021/07/22 13:13:29;;;;;;;17.80;17.00;;;;;;;;;;5070695;28;20483;-68
2021/07/22 13:15:57;;;;;;;17.73;16.80;;;;;;;;;;5074081;28;20457;-66
2021/07/22 13:18:24;;;;;;;17.37;16.57;;;;;;;;;;5067766;28;20462;-68
2021/07/22 13:20:52;;;;;;;17.00;16.20;;;;;;;;;;5074235;28;20449;-67
2021/07/22 13:23:19;;;;;;;18.13;17.00;;;;;;;;;;5073783;28;20483;-68
2021/07/22 13:25:46;;;;;;;17.20;16.40;;;;;;;;;;5074296;28;20447;-68
2021/07/22 13:28:14;;;;;;;17.13;16.27;;;;;;;;;;5073667;28;20483;-68
2021/07/22 13:30:42;;;;;;;17.20;16.40;;;;;;;;;;5073472;28;20838;-68
2021/07/22 13:33:10;;;;;;;16.80;16.10;;;;;;;;;;5073654;28;20475;-67
2021/07/22 13:35:38;;;;;;;18.13;17.10;;;;;;;;;;5071524;28;20474;-66
2021/07/22 13:38:06;;;;;;;17.57;16.57;;;;;;;;;;5068179;28;20465;-68
2021/07/22 13:40:33;;;;;;;17.53;16.60;;;;;;;;;;5053623;28;20454;-66
2021/07/22 13:43:01;;;;;;;18.33;17.23;;;;;;;;;;5053549;28;20468;-68
2021/07/22 13:45:29;;;;;;;18.10;17.20;;;;;;;;;;5054101;28;20517;-68
2021/07/22 13:47:58;;;;;;;17.77;16.77;;;;;;;;;;5059123;28;20481;-68
2021/07/22 13:50:25;;;;;;;17.40;16.57;;;;;;;;;;5062303;28;20439;-67
2021/07/22 13:52:52;;;;;;;17.60;16.70;;;;;;;;;;5073451;28;20459;-68
2021/07/22 13:55:20;;;;;;;18.03;17.03;;;;;;;;;;5073490;28;20973;-67
2021/07/22 13:57:47;;;;;;;17.53;16.63;;;;;;;;;;5068467;28;20464;-68
2021/07/22 14:00:14;;;;;;;17.43;16.50;;;;;;;;;;5073502;28;20447;-68
2021/07/22 14:02:41;;;;;;;16.97;16.07;;;;;;;;;;4974668;28;20485;-65
2021/07/22 14:05:12;;;;;;;17.50;16.70;;;;;;;;;;4974681;28;20462;-65
2021/07/22 14:07:39;;;;;;;20.17;19.00;;;;;;;;;;4974632;28;20549;-65
2021/07/22 14:10:06;;;;;;;20.53;19.43;;;;;;;;;;4974338;28;20447;-65
2021/07/22 14:12:34;;;;;;;20.00;19.00;;;;;;;;;;4974233;28;20466;-65
2021/07/22 14:15:01;;;;;;;20.93;19.83;;;;;;;;;;4974890;28;20456;-65
2021/07/22 14:17:28;;;;;;;21.33;20.13;;;;;;;;;;4987303;28;20457;-65
2021/07/22 14:19:55;;;;;;;20.37;19.37;;;;;;;;;;4993746;28;20461;-63
2021/07/22 14:22:24;;;;;;;20.33;19.20;;;;;;;;;;4993598;28;20455;-63